Cegled, Hungary
Current Conditions -  °F | °C
As of 9:45 AM on Sunday 21 Dec 2014 (Local Time) from LHKE Reporting Station
Clear Clear  
Wind Chill: 30°   Ceiling: Unl
Heat Index: 41°   Visibility: 6mi
Dew Point: 32°   Wind: 26mph
Humidity: 70%   Direction: 310°NW
Pressure: 30.18"   Gusts: NA
Location:  47.18°N, 19.78°E
Report Text: LHKE 210745Z 31023KT CAVOK 05/M00 Q1022 NOSIG RMK BLU
Loading
Personal Weather Stations






























Interactive Weather Map New forecast layout! Learn more

10-Day Weather Forecast

Advertisements
Track Severe Weather on mobile